ADDS TAF Board (Experimental) INFO Settings
IDs: Format: Expanded Condensed

KSFO - San Francisco Intl, CA, US

Issued at 0523 UTC 28 Sep 2016
Updated at 0833 UTC 28 Sep 2016
Time0756Z 28/09Z 28/10Z 28/11Z 28/12Z 28/13Z 28/14Z 28/15Z 28/16Z 28/17Z 28/18Z 28/19Z 28/20Z 28/21Z
Type OBS PRVL PRVL PRVL PRVL PRVL PRVL PRVL PRVL PRVL PRVL PRVL PRVL PRVL
VIS 10 >6 >6 >6 >6 >6 >6 >6 >6 >6 >6 >6 >6 >6
CIG -- -- 7 7 7 7 7 7 -- -- -- -- -- --
Cover FEW FEW OVC OVC OVC OVC OVC OVC FEW FEW FEW FEW FEW FEW
FltCat VFR VFR IFR IFR IFR IFR IFR IFR VFR VFR VFR VFR VFR VFR
WX -- -- -- -- -- -- -- -- -- -- -- -- -- --
WDir 290 290 290 290 290 290 290 290 330 330 330 330 330 330
WSpd 9 10 5 5 5 5 5 5 3 3 3 3 3 3
WGst -- -- -- -- -- -- -- -- -- -- -- -- -- --
R01/19
XWnd 9 10 5 5 5 5 5 5 3 3 3 3 3 3
HWnd -1 -1 -1 -1 -1 -1 -1 -1 2 2 2 2 2 2
R10/28
XWnd -1 -1 -1 -1 -1 -1 -1 -1 2 2 2 2 2 2
HWnd -9 -10 -5 -5 -5 -5 -5 -5 -3 -3 -3 -3 -3 -3

Raw TAF
KSFO 280523Z 2806/2912 29010KT P6SM FEW010
  FM281000 29005KT P6SM OVC007
  FM281600 33003KT P6SM FEW010
  FM282200 29016KT P6SM FEW010
  FM290400 29011KT P6SM FEW010


Raw METAR
KSFO 280756Z 29009KT 10SM FEW005 13/11 A2987 RMK AO2 SLP115 T01330111 402610133
KSFO 280656Z 29010KT 10SM FEW006 14/11 A2987 RMK AO2 SLP116 T01390111
KSFO 280556Z 29012KT 10SM FEW006 14/11 A2987 RMK AO2 SLP114 T01390111 10228 20139 51012

METAR Board
Radar Display
Forecast Discussion

TAF Board Legend

Potential Impact
Threat None Slight Moderate High
Visibility (sm) ≥5.1 5.1>X≥3 3>X≥1 <1
Ceiling (100 ft) ≥30.1 30.1>X≥10 10>X≥5 <5
Wind Speed (kt) <10 10≤X<20 20≤X<30 ≥30
Wind Gust (kt) <15 15≤X<25 25≤X<35 ≥35
Weather No Wx Reported VCTS,-TS,-FZRA,SN TS,FZRA +TS,+FZRA,+SN